Time;durP1;ratioP1;P1;durP2;ratioP2;P2;SDS_P1;SDS_P2;PMS_P1;PMS_P2;Temp;Humidity;BMP_temperature;BMP_pressure;BME280_temperature;BME280_humidity;BME280_pressure;Samples;Min_cycle;Max_cycle;Signal;HPM_P1;HPM_P2
2023/09/09 00:00:59;;;;;;;;;;;19.80;99.90;;;;;;5026497;28;19910;-76
2023/09/09 00:03:25;;;;;;;;;;;19.80;99.90;;;;;;5031631;28;19927;-77
2023/09/09 00:05:51;;;;;;;;;;;19.80;99.90;;;;;;5024326;28;19909;-78
2023/09/09 00:08:18;;;;;;;;;;;19.80;99.90;;;;;;5030177;28;19905;-76
2023/09/09 00:10:44;;;;;;;;;;;19.80;99.90;;;;;;5030126;28;19971;-77
2023/09/09 00:13:10;;;;;;;;;;;19.90;99.90;;;;;;5018908;28;20393;-77
2023/09/09 00:15:35;;;;;;;;;;;19.90;99.90;;;;;;5018237;28;19932;-77
2023/09/09 00:18:04;;;;;;;;;;;19.90;99.90;;;;;;5030070;28;19952;-77
2023/09/09 00:20:31;;;;;;;;;;;19.90;99.90;;;;;;5028139;28;19905;-79
2023/09/09 00:22:57;;;;;;;;;;;19.80;99.90;;;;;;5019581;28;19929;-77
2023/09/09 00:25:22;;;;;;;;;;;19.80;99.90;;;;;;5018234;28;19905;-77
2023/09/09 00:27:48;;;;;;;;;;;19.70;99.90;;;;;;5029911;28;19916;-78
2023/09/09 00:30:13;;;;;;;;;;;19.70;99.90;;;;;;5029861;28;19921;-79
2023/09/09 00:32:39;;;;;;;;;;;19.60;99.90;;;;;;5019823;28;19905;-77
2023/09/09 00:35:04;;;;;;;;;;;19.60;99.90;;;;;;5017635;28;19920;-79
2023/09/09 00:37:30;;;;;;;;;;;19.60;99.90;;;;;;5029046;28;20426;-78
2023/09/09 00:39:55;;;;;;;;;;;19.60;99.90;;;;;;5017395;28;19906;-79
2023/09/09 00:42:21;;;;;;;;;;;19.60;99.90;;;;;;5015881;28;20004;-78
2023/09/09 00:44:46;;;;;;;;;;;19.60;99.90;;;;;;5033023;28;19948;-79
2023/09/09 00:47:12;;;;;;;;;;;19.60;99.90;;;;;;5022939;28;20373;-78
2023/09/09 00:49:38;;;;;;;;;;;19.60;99.90;;;;;;5022608;28;19905;-77
2023/09/09 00:52:03;;;;;;;;;;;19.60;99.90;;;;;;5035926;28;20454;-79
2023/09/09 00:54:29;;;;;;;;;;;19.60;99.90;;;;;;5022959;28;19913;-78
2023/09/09 00:56:55;;;;;;;;;;;19.60;99.90;;;;;;5035379;28;20384;-77
2023/09/09 00:59:21;;;;;;;;;;;19.50;99.90;;;;;;5023012;28;19905;-79
2023/09/09 01:01:46;;;;;;;;;;;19.50;99.90;;;;;;5035628;28;19916;-78
2023/09/09 01:04:12;;;;;;;;;;;19.40;99.90;;;;;;5035324;28;19913;-78
2023/09/09 01:06:37;;;;;;;;;;;19.40;99.90;;;;;;5037578;28;19909;-78
2023/09/09 01:09:06;;;;;;;;;;;19.40;99.90;;;;;;5039237;28;20332;-76
2023/09/09 01:11:32;;;;;;;;;;;19.50;99.90;;;;;;5039093;28;19905;-78
2023/09/09 01:13:58;;;;;;;;;;;19.60;99.90;;;;;;5026895;28;19963;-77
2023/09/09 01:16:23;;;;;;;;;;;19.60;99.90;;;;;;5038973;28;20004;-77
2023/09/09 01:18:49;;;;;;;;;;;19.60;99.90;;;;;;5039138;28;19947;-76
2023/09/09 01:21:16;;;;;;;;;;;19.60;99.90;;;;;;5038725;28;19913;-76
2023/09/09 01:23:42;;;;;;;;;;;19.60;99.90;;;;;;5037642;28;19908;-77
2023/09/09 01:26:08;;;;;;;;;;;19.60;99.90;;;;;;5038798;28;19954;-77
2023/09/09 01:28:33;;;;;;;;;;;19.50;99.90;;;;;;5038115;28;19972;-78
2023/09/09 01:30:59;;;;;;;;;;;19.60;99.90;;;;;;5036916;28;19909;-78
2023/09/09 01:33:24;;;;;;;;;;;19.60;99.90;;;;;;5038184;28;20689;-78
2023/09/09 01:35:50;;;;;;;;;;;19.60;99.90;;;;;;5037990;28;20356;-79
2023/09/09 01:38:15;;;;;;;;;;;19.50;99.90;;;;;;5037634;28;19915;-78
2023/09/09 01:40:41;;;;;;;;;;;19.50;99.90;;;;;;5054335;28;20011;-80
2023/09/09 01:43:06;;;;;;;;;;;19.50;99.90;;;;;;5037826;28;19956;-79
2023/09/09 01:45:32;;;;;;;;;;;19.50;99.90;;;;;;5039070;28;19905;-77
2023/09/09 01:47:58;;;;;;;;;;;19.50;99.90;;;;;;5038294;28;19905;-78
2023/09/09 01:50:23;;;;;;;;;;;19.50;99.90;;;;;;5039118;28;19909;-78
2023/09/09 01:52:49;;;;;;;;;;;19.50;99.90;;;;;;5038468;28;19916;-77
2023/09/09 01:55:14;;;;;;;;;;;19.50;99.90;;;;;;5026736;28;19961;-77
2023/09/09 01:57:40;;;;;;;;;;;19.40;99.90;;;;;;5038002;28;19909;-78
2023/09/09 02:00:09;;;;;;;;;;;19.40;99.90;;;;;;5037151;28;19992;-78
2023/09/09 02:02:35;;;;;;;;;;;19.40;99.90;;;;;;5038157;28;19913;-79
2023/09/09 02:05:00;;;;;;;;;;;19.40;99.90;;;;;;5038174;28;19913;-77
2023/09/09 02:07:27;;;;;;;;;;;19.30;99.90;;;;;;5037717;28;19956;-79
2023/09/09 02:09:52;;;;;;;;;;;19.30;99.90;;;;;;5038478;28;20359;-78
2023/09/09 02:12:18;;;;;;;;;;;19.20;99.90;;;;;;5052985;28;19979;-78
2023/09/09 02:14:43;;;;;;;;;;;19.20;99.90;;;;;;5035259;28;20368;-78
2023/09/09 02:17:10;;;;;;;;;;;19.20;99.90;;;;;;5027899;28;19959;-77
2023/09/09 02:19:36;;;;;;;;;;;19.30;99.90;;;;;;5029522;28;20060;-77
2023/09/09 02:22:01;;;;;;;;;;;19.30;99.90;;;;;;5029524;28;19909;-78
2023/09/09 02:24:27;;;;;;;;;;;19.30;99.90;;;;;;5034491;28;19912;-79
2023/09/09 02:26:52;;;;;;;;;;;19.30;99.90;;;;;;5029842;28;19955;-78
2023/09/09 02:29:18;;;;;;;;;;;19.30;99.90;;;;;;5034487;28;19905;-78
2023/09/09 02:31:43;;;;;;;;;;;19.30;99.90;;;;;;5028096;28;20004;-77
2023/09/09 02:34:09;;;;;;;;;;;19.30;99.90;;;;;;5037119;28;19913;-78
2023/09/09 02:36:34;;;;;;;;;;;19.20;99.90;;;;;;5030483;28;19928;-77
2023/09/09 02:39:00;;;;;;;;;;;19.10;99.90;;;;;;5030406;28;19909;-77
2023/09/09 02:41:25;;;;;;;;;;;19.10;99.90;;;;;;5024099;28;19906;-78
2023/09/09 02:43:51;;;;;;;;;;;19.00;99.90;;;;;;5032683;28;19912;-77
2023/09/09 02:46:17;;;;;;;;;;;18.90;99.90;;;;;;5023652;28;19913;-76
2023/09/09 02:48:43;;;;;;;;;;;18.80;99.90;;;;;;5034407;28;19905;-78
2023/09/09 02:51:08;;;;;;;;;;;18.70;99.90;;;;;;5033246;28;19912;-77
2023/09/09 02:53:34;;;;;;;;;;;18.70;99.90;;;;;;5035229;28;19905;-78
2023/09/09 02:55:59;;;;;;;;;;;18.60;99.90;;;;;;5034580;28;19956;-77
2023/09/09 02:58:25;;;;;;;;;;;18.50;99.90;;;;;;5036156;28;20099;-77
2023/09/09 03:00:51;;;;;;;;;;;18.50;99.90;;;;;;5029881;28;20004;-78
2023/09/09 03:03:17;;;;;;;;;;;18.40;99.90;;;;;;5016560;28;20300;-78
2023/09/09 03:05:43;;;;;;;;;;;18.30;99.90;;;;;;5026665;28;19940;-78
2023/09/09 03:08:09;;;;;;;;;;;18.30;99.90;;;;;;5030460;28;19955;-77
2023/09/09 03:10:34;;;;;;;;;;;18.20;99.90;;;;;;5025065;28;19936;-77
2023/09/09 03:13:00;;;;;;;;;;;18.10;99.90;;;;;;5030495;28;19905;-77
2023/09/09 03:15:25;;;;;;;;;;;18.10;99.90;;;;;;5026878;28;19906;-77
2023/09/09 03:17:51;;;;;;;;;;;18.00;99.90;;;;;;5036007;28;19929;-77
2023/09/09 03:20:16;;;;;;;;;;;18.00;99.90;;;;;;5031780;28;19916;-77
2023/09/09 03:22:42;;;;;;;;;;;18.00;99.90;;;;;;5034982;28;20396;-77
2023/09/09 03:25:08;;;;;;;;;;;18.00;99.90;;;;;;5031547;28;19999;-77
2023/09/09 03:27:34;;;;;;;;;;;17.90;99.90;;;;;;5034862;28;20301;-77
2023/09/09 03:29:59;;;;;;;;;;;17.90;99.90;;;;;;5032875;28;19909;-78
2023/09/09 03:32:29;;;;;;;;;;;17.90;99.90;;;;;;5034930;28;19912;-78
2023/09/09 03:34:55;;;;;;;;;;;17.90;99.90;;;;;;5031923;28;19928;-78
2023/09/09 03:37:21;;;;;;;;;;;17.90;99.90;;;;;;5035665;28;20376;-77
2023/09/09 03:39:47;;;;;;;;;;;17.80;99.90;;;;;;5030873;28;19905;-78
2023/09/09 03:42:13;;;;;;;;;;;17.80;99.90;;;;;;5034606;28;19972;-77
2023/09/09 03:44:38;;;;;;;;;;;17.70;99.90;;;;;;5031800;28;19909;-77
2023/09/09 03:47:04;;;;;;;;;;;17.70;99.90;;;;;;5034743;28;19913;-78
2023/09/09 03:49:29;;;;;;;;;;;17.70;99.90;;;;;;5030596;28;19916;-77
2023/09/09 03:51:55;;;;;;;;;;;17.70;99.90;;;;;;5034419;28;19905;-77
2023/09/09 03:54:21;;;;;;;;;;;17.70;99.90;;;;;;5032049;28;19905;-78
2023/09/09 03:56:46;;;;;;;;;;;17.70;99.90;;;;;;5049884;28;19905;-77
2023/09/09 03:59:12;;;;;;;;;;;17.60;99.90;;;;;;5032162;28;20000;-77
2023/09/09 04:01:37;;;;;;;;;;;17.70;99.90;;;;;;5034435;28;19909;-78
2023/09/09 04:04:03;;;;;;;;;;;17.60;99.90;;;;;;5031016;28;19909;-78
2023/09/09 04:06:29;;;;;;;;;;;17.60;99.90;;;;;;5034549;28;19905;-78
2023/09/09 04:08:56;;;;;;;;;;;17.60;99.90;;;;;;5032240;28;19954;-78
2023/09/09 04:11:22;;;;;;;;;;;17.60;99.90;;;;;;5034528;28;19905;-77
2023/09/09 04:13:48;;;;;;;;;;;17.50;99.90;;;;;;5032960;28;19944;-78
2023/09/09 04:16:13;;;;;;;;;;;17.60;99.90;;;;;;5033129;28;20292;-77
2023/09/09 04:18:39;;;;;;;;;;;17.50;99.90;;;;;;5047514;28;19912;-77
2023/09/09 04:21:04;;;;;;;;;;;17.60;99.90;;;;;;5034290;28;20277;-77
2023/09/09 04:23:30;;;;;;;;;;;17.60;99.90;;;;;;5032564;28;19913;-77
2023/09/09 04:25:55;;;;;;;;;;;17.60;99.90;;;;;;5033063;28;19963;-77
2023/09/09 04:28:21;;;;;;;;;;;17.60;99.90;;;;;;5031827;28;19928;-76
2023/09/09 04:30:46;;;;;;;;;;;17.70;99.90;;;;;;5034318;28;19927;-77
2023/09/09 04:33:12;;;;;;;;;;;17.70;99.90;;;;;;5030994;28;20331;-78
2023/09/09 04:35:44;;;;;;;;;;;17.70;99.90;;;;;;5033889;28;20404;-78
2023/09/09 04:38:09;;;;;;;;;;;17.70;99.90;;;;;;5032531;28;20365;-77
2023/09/09 04:40:42;;;;;;;;;;;17.70;99.90;;;;;;5032462;28;19908;-77
2023/09/09 04:43:08;;;;;;;;;;;17.70;99.90;;;;;;5031258;28;20046;-77
2023/09/09 04:45:34;;;;;;;;;;;17.70;99.90;;;;;;5033947;28;19913;-77
2023/09/09 04:47:59;;;;;;;;;;;17.60;99.90;;;;;;5032247;28;19936;-77
2023/09/09 04:50:25;;;;;;;;;;;17.60;99.90;;;;;;5033643;28;19912;-77
2023/09/09 04:52:50;;;;;;;;;;;17.70;99.90;;;;;;5032206;28;19948;-77
2023/09/09 04:55:16;;;;;;;;;;;17.70;99.90;;;;;;5033643;28;19909;-77
2023/09/09 04:57:41;;;;;;;;;;;17.70;99.90;;;;;;5031956;28;20047;-76
2023/09/09 05:00:07;;;;;;;;;;;17.80;99.90;;;;;;5032180;28;19912;-77
2023/09/09 05:02:33;;;;;;;;;;;17.90;99.90;;;;;;5031283;28;19909;-79
2023/09/09 05:04:59;;;;;;;;;;;18.10;99.90;;;;;;5047847;28;19905;-76
2023/09/09 05:07:25;;;;;;;;;;;18.10;99.90;;;;;;5031016;28;19931;-76
2023/09/09 05:09:50;;;;;;;;;;;18.20;99.90;;;;;;5047938;28;19909;-71
2023/09/09 05:12:16;;;;;;;;;;;18.40;99.90;;;;;;5030558;28;19905;-71
2023/09/09 05:14:42;;;;;;;;;;;18.50;99.90;;;;;;5031870;28;20062;-72
2023/09/09 05:17:08;;;;;;;;;;;18.60;99.90;;;;;;5029731;28;19947;-70
2023/09/09 05:19:33;;;;;;;;;;;18.80;99.90;;;;;;5031340;28;19941;-72
2023/09/09 05:21:59;;;;;;;;;;;19.00;99.90;;;;;;5029459;28;20331;-73
2023/09/09 05:24:24;;;;;;;;;;;19.10;99.90;;;;;;5030517;28;20324;-71
2023/09/09 05:26:50;;;;;;;;;;;19.20;99.90;;;;;;5027236;28;19909;-71
2023/09/09 05:29:15;;;;;;;;;;;19.20;99.90;;;;;;5032879;28;20012;-73
2023/09/09 05:31:41;;;;;;;;;;;19.20;99.90;;;;;;5033004;28;19999;-71
2023/09/09 05:34:06;;;;;;;;;;;19.20;99.90;;;;;;5032646;28;20004;-71
2023/09/09 05:36:32;;;;;;;;;;;19.20;99.90;;;;;;5033825;28;19959;-72
2023/09/09 05:38:59;;;;;;;;;;;19.10;99.90;;;;;;5034135;28;20399;-71
2023/09/09 05:41:31;;;;;;;;;;;19.20;99.90;;;;;;5034177;28;19905;-74
2023/09/09 05:43:56;;;;;;;;;;;19.20;99.90;;;;;;5033945;28;19913;-72
2023/09/09 05:46:22;;;;;;;;;;;19.30;99.90;;;;;;5033615;28;19920;-73
2023/09/09 05:48:47;;;;;;;;;;;19.40;99.90;;;;;;5049070;28;19936;-73
2023/09/09 05:51:13;;;;;;;;;;;19.50;99.90;;;;;;5034375;28;19943;-72
2023/09/09 05:53:39;;;;;;;;;;;19.50;99.90;;;;;;5037741;28;19905;-74
2023/09/09 05:56:05;;;;;;;;;;;19.50;99.90;;;;;;5036075;28;19951;-74
2023/09/09 05:58:32;;;;;;;;;;;19.60;99.90;;;;;;5036542;28;19931;-74
2023/09/09 06:00:57;;;;;;;;;;;19.80;99.90;;;;;;5037859;28;19912;-73
2023/09/09 06:03:23;;;;;;;;;;;19.80;99.90;;;;;;5028976;28;19959;-73
2023/09/09 06:05:48;;;;;;;;;;;20.00;99.90;;;;;;5023180;28;19956;-73
2023/09/09 06:08:14;;;;;;;;;;;20.00;99.90;;;;;;5027400;28;19955;-75
2023/09/09 06:10:39;;;;;;;;;;;20.00;99.90;;;;;;5022232;28;19905;-73
2023/09/09 06:13:05;;;;;;;;;;;20.00;99.90;;;;;;5027834;28;19905;-73
2023/09/09 06:15:31;;;;;;;;;;;20.00;99.90;;;;;;5039144;28;19913;-74
2023/09/09 06:17:57;;;;;;;;;;;20.10;99.90;;;;;;5028032;28;19905;-75
2023/09/09 06:20:23;;;;;;;;;;;20.10;99.90;;;;;;5022283;28;19909;-75
2023/09/09 06:22:48;;;;;;;;;;;20.20;99.90;;;;;;5034469;28;19913;-74
2023/09/09 06:25:14;;;;;;;;;;;20.40;99.90;;;;;;5034371;28;19920;-74
2023/09/09 06:27:39;;;;;;;;;;;20.50;99.90;;;;;;5036667;28;19929;-75
2023/09/09 06:30:05;;;;;;;;;;;20.50;99.90;;;;;;5029073;28;19905;-74
2023/09/09 06:32:31;;;;;;;;;;;20.60;99.90;;;;;;5029354;28;19912;-74
2023/09/09 06:34:56;;;;;;;;;;;20.70;99.90;;;;;;5032795;28;19912;-72
2023/09/09 06:37:23;;;;;;;;;;;20.80;99.90;;;;;;5053554;28;19913;-72
2023/09/09 06:39:49;;;;;;;;;;;20.80;99.90;;;;;;5033800;28;19916;-71
2023/09/09 06:42:14;;;;;;;;;;;20.90;99.90;;;;;;5036195;28;19905;-73
2023/09/09 06:44:40;;;;;;;;;;;21.00;99.90;;;;;;5033886;28;19912;-73
2023/09/09 06:47:05;;;;;;;;;;;21.10;99.90;;;;;;5035914;28;19953;-73
2023/09/09 06:49:31;;;;;;;;;;;21.10;99.90;;;;;;5033915;28;19928;-73
2023/09/09 06:51:57;;;;;;;;;;;21.20;99.90;;;;;;5036207;28;19905;-73
2023/09/09 06:54:22;;;;;;;;;;;21.30;99.90;;;;;;5033687;28;20024;-71
2023/09/09 06:56:48;;;;;;;;;;;21.30;99.90;;;;;;5035645;28;19944;-74
2023/09/09 06:59:13;;;;;;;;;;;21.50;99.90;;;;;;5033591;28;19909;-72
2023/09/09 07:01:39;;;;;;;;;;;21.60;99.90;;;;;;5035531;28;19924;-73
2023/09/09 07:04:05;;;;;;;;;;;21.70;99.90;;;;;;5032527;28;19924;-73
2023/09/09 07:06:30;;;;;;;;;;;21.80;99.90;;;;;;5035829;28;19909;-71
2023/09/09 07:08:56;;;;;;;;;;;21.90;99.90;;;;;;5033311;28;19905;-72
2023/09/09 07:11:21;;;;;;;;;;;22.00;99.90;;;;;;5035707;28;19992;-71
2023/09/09 07:13:47;;;;;;;;;;;22.10;99.90;;;;;;5033050;28;19912;-71
2023/09/09 07:16:12;;;;;;;;;;;22.20;99.90;;;;;;5035422;28;19905;-72
2023/09/09 07:18:38;;;;;;;;;;;22.20;99.90;;;;;;5032786;28;20258;-70
2023/09/09 07:21:03;;;;;;;;;;;22.30;99.90;;;;;;5033794;28;19913;-71
2023/09/09 07:23:29;;;;;;;;;;;22.40;99.90;;;;;;5030441;28;20373;-71
2023/09/09 07:25:54;;;;;;;;;;;22.50;99.90;;;;;;5033517;28;20451;-72
2023/09/09 07:28:22;;;;;;;;;;;22.50;99.90;;;;;;5030662;28;19908;-75
2023/09/09 07:30:48;;;;;;;;;;;22.60;99.90;;;;;;5033889;28;19905;-73
2023/09/09 07:33:13;;;;;;;;;;;22.70;99.90;;;;;;5029909;28;19915;-72
2023/09/09 07:35:39;;;;;;;;;;;22.80;99.90;;;;;;5031209;28;19933;-74
2023/09/09 07:38:06;;;;;;;;;;;22.90;99.90;;;;;;5036106;28;20383;-76
2023/09/09 07:40:31;;;;;;;;;;;22.90;99.90;;;;;;5027913;28;19971;-72
2023/09/09 07:42:57;;;;;;;;;;;23.10;99.90;;;;;;5024339;28;19913;-71
2023/09/09 07:45:23;;;;;;;;;;;23.10;99.90;;;;;;5027882;28;19905;-71
2023/09/09 07:47:48;;;;;;;;;;;23.10;99.90;;;;;;5022666;28;20420;-74
2023/09/09 07:50:14;;;;;;;;;;;23.20;99.90;;;;;;5018227;28;20373;-74
2023/09/09 07:52:39;;;;;;;;;;;23.30;99.90;;;;;;5034959;28;19912;-75
2023/09/09 07:55:05;;;;;;;;;;;23.30;99.90;;;;;;5035577;28;19909;-74
2023/09/09 07:57:31;;;;;;;;;;;23.30;99.90;;;;;;5018718;28;20308;-75
2023/09/09 07:59:56;;;;;;;;;;;23.40;99.90;;;;;;5019074;28;19917;-72
2023/09/09 08:02:22;;;;;;;;;;;23.50;99.90;;;;;;5031921;28;19906;-70
2023/09/09 08:04:47;;;;;;;;;;;23.70;99.90;;;;;;5028473;28;19909;-71
2023/09/09 08:07:13;;;;;;;;;;;23.70;99.90;;;;;;5024851;28;19957;-71
2023/09/09 08:09:38;;;;;;;;;;;23.70;99.90;;;;;;5033777;28;19905;-71
2023/09/09 08:12:04;;;;;;;;;;;23.70;99.90;;;;;;5026412;28;20373;-72
2023/09/09 08:14:30;;;;;;;;;;;23.80;99.90;;;;;;5029722;28;19944;-72
2023/09/09 08:16:56;;;;;;;;;;;23.90;99.90;;;;;;5041900;28;19909;-73
2023/09/09 08:19:21;;;;;;;;;;;24.10;99.90;;;;;;5028725;28;19912;-71
2023/09/09 08:21:47;;;;;;;;;;;24.10;99.90;;;;;;5026528;28;19909;-72
2023/09/09 08:24:12;;;;;;;;;;;24.20;99.90;;;;;;5029380;28;19909;-72
2023/09/09 08:26:38;;;;;;;;;;;24.10;99.90;;;;;;5026632;28;19906;-71
2023/09/09 08:29:04;;;;;;;;;;;24.20;99.90;;;;;;5029481;28;19963;-73
2023/09/09 08:31:29;;;;;;;;;;;24.20;99.90;;;;;;5025309;28;19955;-73
2023/09/09 08:33:55;;;;;;;;;;;24.40;99.90;;;;;;5028966;28;19909;-71
2023/09/09 08:36:21;;;;;;;;;;;24.40;99.90;;;;;;5030433;28;19928;-72
2023/09/09 08:38:46;;;;;;;;;;;24.40;99.90;;;;;;5028658;28;19909;-73
2023/09/09 08:41:27;;;;;;;;;;;24.40;99.90;;;;;;5030686;28;20582;-72
2023/09/09 08:43:53;;;;;;;;;;;24.60;99.90;;;;;;5031954;28;19913;-72
2023/09/09 08:46:20;;;;;;;;;;;24.60;99.90;;;;;;5022088;28;20484;-72
2023/09/09 08:48:48;;;;;;;;;;;24.70;99.90;;;;;;5029113;28;20272;-73
2023/09/09 08:51:16;;;;;;;;;;;24.80;99.90;;;;;;5022700;28;19906;-72
2023/09/09 08:53:42;;;;;;;;;;;24.90;99.90;;;;;;5023266;28;19932;-73
2023/09/09 08:56:08;;;;;;;;;;;25.00;99.90;;;;;;5023096;28;19909;-72
2023/09/09 08:58:34;;;;;;;;;;;25.10;99.10;;;;;;5029271;28;20004;-72
2023/09/09 09:01:00;;;;;;;;;;;25.10;99.30;;;;;;5024939;28;20386;-72
2023/09/09 09:03:26;;;;;;;;;;;25.10;99.10;;;;;;5027844;28;19909;-71
2023/09/09 09:05:53;;;;;;;;;;;25.10;98.60;;;;;;5022126;28;19909;-71
2023/09/09 09:08:19;;;;;;;;;;;25.30;99.20;;;;;;5019385;28;20017;-76
2023/09/09 09:10:47;;;;;;;;;;;25.40;99.00;;;;;;5023118;28;19906;-75
2023/09/09 09:13:13;;;;;;;;;;;25.50;97.00;;;;;;5027978;28;19916;-76
2023/09/09 09:15:39;;;;;;;;;;;25.50;96.50;;;;;;5023693;28;19910;-75
2023/09/09 09:18:04;;;;;;;;;;;25.40;96.70;;;;;;5027740;28;20336;-75
2023/09/09 09:20:31;;;;;;;;;;;25.50;97.20;;;;;;5024622;28;19905;-76
2023/09/09 09:22:58;;;;;;;;;;;25.60;96.80;;;;;;5035040;28;19909;-76
2023/09/09 09:25:24;;;;;;;;;;;25.60;95.60;;;;;;5019199;28;19924;-77
2023/09/09 09:27:50;;;;;;;;;;;25.60;95.80;;;;;;5034982;28;19905;-77
2023/09/09 09:30:22;;;;;;;;;;;25.70;96.20;;;;;;5023484;28;20346;-75
2023/09/09 09:32:50;;;;;;;;;;;25.90;96.20;;;;;;5026573;28;19912;-75
2023/09/09 09:35:23;;;;;;;;;;;26.00;95.50;;;;;;5029851;28;19981;-75
2023/09/09 09:38:07;;;;;;;;;;;26.10;95.20;;;;;;5036334;28;19910;-77
2023/09/09 09:40:33;;;;;;;;;;;26.20;95.50;;;;;;5026502;28;19904;-75
2023/09/09 09:42:59;;;;;;;;;;;26.30;95.30;;;;;;5031487;28;20369;-76
2023/09/09 09:45:25;;;;;;;;;;;26.20;93.80;;;;;;5033894;28;20273;-76
2023/09/09 09:47:51;;;;;;;;;;;26.20;94.70;;;;;;5031048;28;19905;-77
2023/09/09 09:50:22;;;;;;;;;;;26.30;94.70;;;;;;5033898;28;19969;-77
2023/09/09 09:53:08;;;;;;;;;;;26.30;94.60;;;;;;5031169;28;19940;-76
2023/09/09 09:55:35;;;;;;;;;;;26.40;93.20;;;;;;5032132;28;19909;-76
2023/09/09 09:58:05;;;;;;;;;;;26.50;93.70;;;;;;5033857;28;20283;-76
2023/09/09 10:00:31;;;;;;;;;;;26.60;93.80;;;;;;5031622;28;19909;-76
2023/09/09 10:02:57;;;;;;;;;;;26.80;92.60;;;;;;5034109;28;20003;-79
2023/09/09 10:05:24;;;;;;;;;;;26.80;92.90;;;;;;5031459;28;20377;-78
2023/09/09 10:08:09;;;;;;;;;;;26.90;92.90;;;;;;5034629;28;19909;-76
2023/09/09 10:10:36;;;;;;;;;;;27.10;92.00;;;;;;5029672;28;19916;-77
2023/09/09 10:13:19;;;;;;;;;;;27.10;91.60;;;;;;5034320;28;19905;-78
2023/09/09 10:15:45;;;;;;;;;;;27.20;91.10;;;;;;5049768;28;20409;-77
2023/09/09 10:18:11;;;;;;;;;;;27.30;91.40;;;;;;5031964;28;19905;-78
2023/09/09 10:20:38;;;;;;;;;;;27.20;91.30;;;;;;5036457;28;19996;-77
2023/09/09 10:23:04;;;;;;;;;;;27.30;91.40;;;;;;5034488;28;19915;-78
2023/09/09 10:25:30;;;;;;;;;;;27.40;90.80;;;;;;5030937;28;19995;-77
2023/09/09 10:27:56;;;;;;;;;;;27.40;90.40;;;;;;5036540;28;19959;-75
2023/09/09 10:30:22;;;;;;;;;;;27.40;91.10;;;;;;5025898;28;20430;-76
2023/09/09 10:32:48;;;;;;;;;;;27.60;91.00;;;;;;5023667;28;19912;-77
2023/09/09 10:35:14;;;;;;;;;;;27.60;90.30;;;;;;5025559;28;20000;-76
2023/09/09 10:37:41;;;;;;;;;;;27.60;88.90;;;;;;5035279;28;19909;-77
2023/09/09 10:40:07;;;;;;;;;;;27.70;86.70;;;;;;5033749;28;19944;-75
2023/09/09 10:42:34;;;;;;;;;;;27.70;87.00;;;;;;5032506;28;19916;-76
2023/09/09 10:45:33;;;;;;;;;;;27.70;87.20;;;;;;5033462;28;19920;-75
2023/09/09 10:48:03;;;;;;;;;;;27.80;82.50;;;;;;5041080;28;19905;-76
2023/09/09 10:50:44;;;;;;;;;;;27.80;84.50;;;;;;5032678;28;20377;-77
2023/09/09 10:53:19;;;;;;;;;;;27.90;85.20;;;;;;5036262;28;19905;-75
2023/09/09 10:55:45;;;;;;;;;;;27.90;83.20;;;;;;5025085;28;19913;-76
2023/09/09 10:58:14;;;;;;;;;;;28.00;85.50;;;;;;5027620;28;19913;-76
2023/09/09 11:00:41;;;;;;;;;;;28.10;84.20;;;;;;5023965;28;19912;-76
2023/09/09 11:03:10;;;;;;;;;;;28.00;82.90;;;;;;5025578;28;20015;-74
2023/09/09 11:05:55;;;;;;;;;;;28.10;83.90;;;;;;5021007;28;19916;-76
2023/09/09 11:08:27;;;;;;;;;;;28.10;83.90;;;;;;5023446;28;20767;-78
2023/09/09 11:11:03;;;;;;;;;;;28.20;83.10;;;;;;5020854;28;19928;-77
2023/09/09 11:13:39;;;;;;;;;;;28.20;84.80;;;;;;5032527;28;20285;-77
2023/09/09 11:16:06;;;;;;;;;;;28.30;84.90;;;;;;5020843;28;19916;-76
2023/09/09 11:18:33;;;;;;;;;;;28.40;82.10;;;;;;5020480;28;19910;-76
2023/09/09 11:20:59;;;;;;;;;;;28.40;82.20;;;;;;5019076;28;20281;-75
2023/09/09 11:23:25;;;;;;;;;;;28.40;83.90;;;;;;5023028;28;19920;-76
2023/09/09 11:25:52;;;;;;;;;;;28.50;81.80;;;;;;5020973;28;19905;-76
2023/09/09 11:28:18;;;;;;;;;;;28.60;80.80;;;;;;5023082;28;19909;-76
2023/09/09 11:30:43;;;;;;;;;;;28.60;80.70;;;;;;5031553;28;19905;-77
2023/09/09 11:33:09;;;;;;;;;;;28.60;81.60;;;;;;5023609;28;19905;-76
2023/09/09 11:35:35;;;;;;;;;;;28.80;83.00;;;;;;5029645;28;19920;-78
2023/09/09 11:38:02;;;;;;;;;;;28.80;80.70;;;;;;5032354;28;19912;-76
2023/09/09 11:40:29;;;;;;;;;;;28.90;81.90;;;;;;5020584;28;19905;-75
2023/09/09 11:42:54;;;;;;;;;;;28.80;81.90;;;;;;5022453;28;19909;-78
2023/09/09 11:45:20;;;;;;;;;;;28.80;83.10;;;;;;5035657;28;19912;-76
2023/09/09 11:47:46;;;;;;;;;;;28.90;84.20;;;;;;5020160;28;20381;-76
2023/09/09 11:50:12;;;;;;;;;;;29.00;83.90;;;;;;5020208;28;19944;-78
2023/09/09 11:52:37;;;;;;;;;;;29.00;82.90;;;;;;5021061;28;19909;-75
2023/09/09 11:55:03;;;;;;;;;;;29.00;82.70;;;;;;5020690;28;20365;-77
2023/09/09 11:57:29;;;;;;;;;;;29.00;82.30;;;;;;5020293;28;19905;-78
2023/09/09 11:59:57;;;;;;;;;;;28.90;84.20;;;;;;5020329;28;20281;-77
2023/09/09 12:02:26;;;;;;;;;;;29.10;86.30;;;;;;5026071;28;19967;-75
2023/09/09 12:05:02;;;;;;;;;;;29.10;86.00;;;;;;5025956;28;20007;-78
2023/09/09 12:07:35;;;;;;;;;;;29.30;82.90;;;;;;5030203;28;19944;-77
2023/09/09 12:10:04;;;;;;;;;;;29.30;84.40;;;;;;5022670;28;19932;-76
2023/09/09 12:12:29;;;;;;;;;;;29.50;84.40;;;;;;5030639;28;19928;-76
2023/09/09 12:14:56;;;;;;;;;;;29.50;85.50;;;;;;5035769;28;19905;-80
2023/09/09 12:17:22;;;;;;;;;;;29.60;83.00;;;;;;5051344;28;19905;-77
2023/09/09 12:19:54;;;;;;;;;;;29.70;83.30;;;;;;5034049;28;19936;-80
2023/09/09 12:22:30;;;;;;;;;;;29.70;84.70;;;;;;5020998;28;19909;-76
2023/09/09 12:24:56;;;;;;;;;;;29.70;82.10;;;;;;5022939;28;19906;-75
2023/09/09 12:27:21;;;;;;;;;;;29.60;82.20;;;;;;5022268;28;20435;-76
2023/09/09 12:29:47;;;;;;;;;;;29.70;81.20;;;;;;5019144;28;19947;-75
2023/09/09 12:32:12;;;;;;;;;;;29.80;79.40;;;;;;5017285;28;20026;-76
2023/09/09 12:34:42;;;;;;;;;;;29.80;78.70;;;;;;5017404;28;19913;-75
2023/09/09 12:37:08;;;;;;;;;;;29.80;78.50;;;;;;5027637;28;19971;-76
2023/09/09 12:39:34;;;;;;;;;;;29.80;79.60;;;;;;5018182;28;19976;-77
2023/09/09 12:42:03;;;;;;;;;;;29.70;80.30;;;;;;5017403;28;19909;-76
2023/09/09 12:44:34;;;;;;;;;;;29.90;80.10;;;;;;5026993;28;19917;-77
2023/09/09 12:47:04;;;;;;;;;;;29.90;79.30;;;;;;5034449;28;20284;-76
2023/09/09 12:49:29;;;;;;;;;;;30.00;80.40;;;;;;5025101;28;19913;-78
2023/09/09 12:51:55;;;;;;;;;;;30.10;80.40;;;;;;5034496;28;19955;-75
2023/09/09 12:54:20;;;;;;;;;;;30.10;79.40;;;;;;5024837;28;19956;-77
2023/09/09 12:56:46;;;;;;;;;;;30.20;78.80;;;;;;5029625;28;19906;-76
2023/09/09 12:59:12;;;;;;;;;;;30.20;79.20;;;;;;5023313;28;19912;-77
2023/09/09 13:01:38;;;;;;;;;;;30.20;78.00;;;;;;5028626;28;19927;-76
2023/09/09 13:04:04;;;;;;;;;;;30.20;75.50;;;;;;5023915;28;19910;-76
2023/09/09 13:06:29;;;;;;;;;;;30.20;77.20;;;;;;5029297;28;20582;-76
2023/09/09 13:08:55;;;;;;;;;;;30.20;77.30;;;;;;5024448;28;20373;-76
2023/09/09 13:11:21;;;;;;;;;;;30.20;76.00;;;;;;5029577;28;20292;-77
2023/09/09 13:13:47;;;;;;;;;;;30.20;78.90;;;;;;5024795;28;19906;-78
2023/09/09 13:16:12;;;;;;;;;;;30.30;75.20;;;;;;5029952;28;19912;-76
2023/09/09 13:18:38;;;;;;;;;;;30.30;76.40;;;;;;5024590;28;19905;-78
2023/09/09 13:21:03;;;;;;;;;;;30.30;76.30;;;;;;5033939;28;20319;-76
2023/09/09 13:23:29;;;;;;;;;;;30.40;76.00;;;;;;5031152;28;19913;-77
2023/09/09 13:25:54;;;;;;;;;;;30.30;75.30;;;;;;5032147;28;19909;-76
2023/09/09 13:28:20;;;;;;;;;;;30.30;76.40;;;;;;5022443;28;20047;-76
2023/09/09 13:30:45;;;;;;;;;;;30.40;74.40;;;;;;5030340;28;19997;-76
2023/09/09 13:33:11;;;;;;;;;;;30.50;75.30;;;;;;5027971;28;19909;-77
2023/09/09 13:35:37;;;;;;;;;;;30.50;73.60;;;;;;5031040;28;19921;-77
2023/09/09 13:38:04;;;;;;;;;;;30.60;75.10;;;;;;5032076;28;19916;-76
2023/09/09 13:40:30;;;;;;;;;;;30.50;74.10;;;;;;5029496;28;20268;-76
2023/09/09 13:42:55;;;;;;;;;;;30.60;75.20;;;;;;5025812;28;19917;-77
2023/09/09 13:45:21;;;;;;;;;;;30.70;75.00;;;;;;5029651;28;19909;-76
2023/09/09 13:47:46;;;;;;;;;;;30.60;72.50;;;;;;5024958;28;19905;-79
2023/09/09 13:50:12;;;;;;;;;;;30.70;74.50;;;;;;5032504;28;19905;-76
2023/09/09 13:52:37;;;;;;;;;;;30.60;73.70;;;;;;5024916;28;19906;-77
2023/09/09 13:55:03;;;;;;;;;;;30.80;75.40;;;;;;5032893;28;20392;-77
2023/09/09 13:57:29;;;;;;;;;;;31.00;73.00;;;;;;5017863;28;19905;-76
2023/09/09 13:59:56;;;;;;;;;;;30.90;71.20;;;;;;5019441;28;19940;-76
2023/09/09 14:02:22;;;;;;;;;;;30.80;73.30;;;;;;5029242;28;19941;-77
2023/09/09 14:04:47;;;;;;;;;;;31.00;72.80;;;;;;5027169;28;19912;-76
2023/09/09 14:07:13;;;;;;;;;;;31.00;70.60;;;;;;5033536;28;19905;-76
2023/09/09 14:09:38;;;;;;;;;;;30.90;71.50;;;;;;5026030;28;20328;-77
2023/09/09 14:12:04;;;;;;;;;;;30.90;70.90;;;;;;5022210;28;19909;-77